Crownpoint, New Mexico
Current Conditions -  °F | °C
As of 12:53 PM on Thursday 30 Oct 2014 (Local Time) from KGUP Reporting Station
Clear Clear  
Wind Chill: 69°   Ceiling: Unl
Heat Index: 69°   Visibility: 10mi
Dew Point: 16°   Wind: 7mph
Humidity: 13%   Direction: 100°E
Pressure: 30.35"   Gusts: NA
Location:  35.68°N, 108.16°W
Report Text: KGUP 301853Z AUTO 10006KT 10SM CLR 21/M09 A3035 RMK AO2 SLP196 T02061089
Loading
Personal Weather Stations






























Interactive Weather Map
Tropical Storm Tracking
New forecast layout! Learn more

10-Day Weather Forecast

Advertisements
Track Severe Weather on mobile